Terminal Aerodrome Forecast
Issued by NWS Binghamton, NY

Home | Current Version | Previous Version | Text Only | Print | Product List | Glossary On
Versions: 1 2 3 4 5 6 7 8 9 10 11 12 13 14 15 16 17 18 19 20 21 22 23
000
FTUS41 KBGM 292300
TAFAVP
TAF
KAVP 292340Z 3000/3024 20010KT P6SM -SHSN OVC025 WS020/18040KT
      TEMPO 3001/3003 1SM -SN
     FM300600 20010KT 5SM -SHSN OVC025
     FM301200 30013G20KT P6SM OVC025=

USA.gov is the U.S. government's official web portal to all federal, state and local government web resources and services.